sensor_id;sensor_type;location;lat;lon;timestamp;temperature;humidity
15013;DHT22;7603;49.432;11.418;2023-07-28T00:01:56;16.40;99.90
15013;DHT22;7603;49.432;11.418;2023-07-28T00:04:22;16.40;99.90
15013;DHT22;7603;49.432;11.418;2023-07-28T00:06:48;16.40;99.90
15013;DHT22;7603;49.432;11.418;2023-07-28T00:09:13;16.40;99.90
15013;DHT22;7603;49.432;11.418;2023-07-28T00:11:39;16.40;99.90
15013;DHT22;7603;49.432;11.418;2023-07-28T00:14:04;16.40;99.90
15013;DHT22;7603;49.432;11.418;2023-07-28T00:16:30;16.40;99.90
15013;DHT22;7603;49.432;11.418;2023-07-28T00:18:56;16.40;99.90
15013;DHT22;7603;49.432;11.418;2023-07-28T00:21:22;16.40;99.90
15013;DHT22;7603;49.432;11.418;2023-07-28T00:23:47;16.30;99.90
15013;DHT22;7603;49.432;11.418;2023-07-28T00:26:13;16.30;99.90
15013;DHT22;7603;49.432;11.418;2023-07-28T00:28:38;16.40;99.90
15013;DHT22;7603;49.432;11.418;2023-07-28T00:31:04;16.30;99.90
15013;DHT22;7603;49.432;11.418;2023-07-28T00:33:30;16.30;99.90
15013;DHT22;7603;49.432;11.418;2023-07-28T00:35:55;16.30;99.90
15013;DHT22;7603;49.432;11.418;2023-07-28T00:38:21;16.40;99.90
15013;DHT22;7603;49.432;11.418;2023-07-28T00:40:46;16.30;99.90
15013;DHT22;7603;49.432;11.418;2023-07-28T00:43:12;16.30;99.90
15013;DHT22;7603;49.432;11.418;2023-07-28T00:45:38;16.30;99.90
15013;DHT22;7603;49.432;11.418;2023-07-28T00:48:12;16.30;99.90
15013;DHT22;7603;49.432;11.418;2023-07-28T00:50:46;16.30;99.90
15013;DHT22;7603;49.432;11.418;2023-07-28T00:53:12;16.30;99.90
15013;DHT22;7603;49.432;11.418;2023-07-28T00:55:38;16.30;99.90
15013;DHT22;7603;49.432;11.418;2023-07-28T00:58:04;16.30;99.90
15013;DHT22;7603;49.432;11.418;2023-07-28T01:00:29;16.30;99.90
15013;DHT22;7603;49.432;11.418;2023-07-28T01:02:56;16.30;99.90
15013;DHT22;7603;49.432;11.418;2023-07-28T01:05:28;16.30;99.90
15013;DHT22;7603;49.432;11.418;2023-07-28T01:08:06;16.30;99.90
15013;DHT22;7603;49.432;11.418;2023-07-28T01:10:35;16.40;99.90
15013;DHT22;7603;49.432;11.418;2023-07-28T01:13:01;16.30;99.90
15013;DHT22;7603;49.432;11.418;2023-07-28T01:15:26;16.30;99.90
15013;DHT22;7603;49.432;11.418;2023-07-28T01:17:52;16.30;99.90
15013;DHT22;7603;49.432;11.418;2023-07-28T01:20:18;16.30;99.90
15013;DHT22;7603;49.432;11.418;2023-07-28T01:23:08;16.40;99.90
15013;DHT22;7603;49.432;11.418;2023-07-28T01:25:54;16.40;99.90
15013;DHT22;7603;49.432;11.418;2023-07-28T01:28:21;16.40;99.90
15013;DHT22;7603;49.432;11.418;2023-07-28T01:30:48;16.30;99.90
15013;DHT22;7603;49.432;11.418;2023-07-28T01:33:13;16.30;99.90
15013;DHT22;7603;49.432;11.418;2023-07-28T01:35:39;16.30;99.90
15013;DHT22;7603;49.432;11.418;2023-07-28T01:38:04;16.30;99.90
15013;DHT22;7603;49.432;11.418;2023-07-28T01:40:30;16.30;99.90
15013;DHT22;7603;49.432;11.418;2023-07-28T01:42:56;16.30;99.90
15013;DHT22;7603;49.432;11.418;2023-07-28T01:45:22;16.30;99.90
15013;DHT22;7603;49.432;11.418;2023-07-28T01:47:47;16.30;99.90
15013;DHT22;7603;49.432;11.418;2023-07-28T01:50:13;16.30;99.90
15013;DHT22;7603;49.432;11.418;2023-07-28T01:52:38;16.30;99.90
15013;DHT22;7603;49.432;11.418;2023-07-28T01:55:04;16.20;99.90
15013;DHT22;7603;49.432;11.418;2023-07-28T01:57:33;16.30;99.90
15013;DHT22;7603;49.432;11.418;2023-07-28T01:59:59;16.30;99.90
15013;DHT22;7603;49.432;11.418;2023-07-28T02:02:25;16.30;99.90
15013;DHT22;7603;49.432;11.418;2023-07-28T02:04:50;16.30;99.90
15013;DHT22;7603;49.432;11.418;2023-07-28T02:07:16;16.20;99.90
15013;DHT22;7603;49.432;11.418;2023-07-28T02:09:42;16.30;99.90
15013;DHT22;7603;49.432;11.418;2023-07-28T02:12:07;16.30;99.90
15013;DHT22;7603;49.432;11.418;2023-07-28T02:14:33;16.30;99.90
15013;DHT22;7603;49.432;11.418;2023-07-28T02:16:59;16.30;99.90
15013;DHT22;7603;49.432;11.418;2023-07-28T02:19:25;16.30;99.90
15013;DHT22;7603;49.432;11.418;2023-07-28T02:21:50;16.30;99.90
15013;DHT22;7603;49.432;11.418;2023-07-28T02:24:16;16.30;99.90
15013;DHT22;7603;49.432;11.418;2023-07-28T02:26:42;16.40;99.90
15013;DHT22;7603;49.432;11.418;2023-07-28T02:29:09;16.30;99.90
15013;DHT22;7603;49.432;11.418;2023-07-28T02:31:34;16.30;99.90
15013;DHT22;7603;49.432;11.418;2023-07-28T02:34:00;16.40;99.90
15013;DHT22;7603;49.432;11.418;2023-07-28T02:36:25;16.40;99.90
15013;DHT22;7603;49.432;11.418;2023-07-28T02:38:51;16.30;99.90
15013;DHT22;7603;49.432;11.418;2023-07-28T02:41:17;16.40;99.90
15013;DHT22;7603;49.432;11.418;2023-07-28T02:43:42;16.40;99.90
15013;DHT22;7603;49.432;11.418;2023-07-28T02:46:08;16.30;99.90
15013;DHT22;7603;49.432;11.418;2023-07-28T02:48:33;16.30;99.90
15013;DHT22;7603;49.432;11.418;2023-07-28T02:50:59;16.40;99.90
15013;DHT22;7603;49.432;11.418;2023-07-28T02:53:25;16.30;99.90
15013;DHT22;7603;49.432;11.418;2023-07-28T02:55:50;16.30;99.90
15013;DHT22;7603;49.432;11.418;2023-07-28T02:58:16;16.30;99.90
15013;DHT22;7603;49.432;11.418;2023-07-28T03:00:43;16.30;99.90
15013;DHT22;7603;49.432;11.418;2023-07-28T03:03:10;16.30;99.90
15013;DHT22;7603;49.432;11.418;2023-07-28T03:05:36;16.30;99.90
15013;DHT22;7603;49.432;11.418;2023-07-28T03:08:02;16.30;99.90
15013;DHT22;7603;49.432;11.418;2023-07-28T03:10:28;16.30;99.90
15013;DHT22;7603;49.432;11.418;2023-07-28T03:12:54;16.40;99.90
15013;DHT22;7603;49.432;11.418;2023-07-28T03:15:20;16.40;99.90
15013;DHT22;7603;49.432;11.418;2023-07-28T03:17:47;16.40;99.90
15013;DHT22;7603;49.432;11.418;2023-07-28T03:20:13;16.50;99.90
15013;DHT22;7603;49.432;11.418;2023-07-28T03:22:39;16.40;99.90
15013;DHT22;7603;49.432;11.418;2023-07-28T03:25:05;16.40;99.90
15013;DHT22;7603;49.432;11.418;2023-07-28T03:27:30;16.40;99.90
15013;DHT22;7603;49.432;11.418;2023-07-28T03:29:56;16.40;99.90
15013;DHT22;7603;49.432;11.418;2023-07-28T03:32:22;16.40;99.90
15013;DHT22;7603;49.432;11.418;2023-07-28T03:34:47;16.40;99.90
15013;DHT22;7603;49.432;11.418;2023-07-28T03:37:13;16.50;99.90
15013;DHT22;7603;49.432;11.418;2023-07-28T03:39:39;16.50;99.90
15013;DHT22;7603;49.432;11.418;2023-07-28T03:42:04;16.50;99.90
15013;DHT22;7603;49.432;11.418;2023-07-28T03:44:30;16.50;99.90
15013;DHT22;7603;49.432;11.418;2023-07-28T03:46:56;16.50;99.90
15013;DHT22;7603;49.432;11.418;2023-07-28T03:49:21;16.50;99.90
15013;DHT22;7603;49.432;11.418;2023-07-28T03:51:47;16.50;99.90
15013;DHT22;7603;49.432;11.418;2023-07-28T03:54:12;16.40;99.90
15013;DHT22;7603;49.432;11.418;2023-07-28T03:56:38;16.40;99.90
15013;DHT22;7603;49.432;11.418;2023-07-28T03:59:04;16.40;99.90
15013;DHT22;7603;49.432;11.418;2023-07-28T04:01:29;16.40;99.90
15013;DHT22;7603;49.432;11.418;2023-07-28T04:03:55;16.40;99.90
15013;DHT22;7603;49.432;11.418;2023-07-28T04:06:48;16.40;99.90
15013;DHT22;7603;49.432;11.418;2023-07-28T04:09:19;16.50;99.90
15013;DHT22;7603;49.432;11.418;2023-07-28T04:11:45;16.40;99.90
15013;DHT22;7603;49.432;11.418;2023-07-28T04:14:10;16.40;99.90
15013;DHT22;7603;49.432;11.418;2023-07-28T04:16:36;16.40;99.90
15013;DHT22;7603;49.432;11.418;2023-07-28T04:19:02;16.50;99.90
15013;DHT22;7603;49.432;11.418;2023-07-28T04:21:27;16.50;99.90
15013;DHT22;7603;49.432;11.418;2023-07-28T04:23:53;16.50;99.90
15013;DHT22;7603;49.432;11.418;2023-07-28T04:26:18;16.50;99.90
15013;DHT22;7603;49.432;11.418;2023-07-28T04:28:44;16.60;99.90
15013;DHT22;7603;49.432;11.418;2023-07-28T04:31:10;16.60;99.90
15013;DHT22;7603;49.432;11.418;2023-07-28T04:33:36;16.60;99.90
15013;DHT22;7603;49.432;11.418;2023-07-28T04:36:05;16.60;99.90
15013;DHT22;7603;49.432;11.418;2023-07-28T04:38:31;16.60;99.90
15013;DHT22;7603;49.432;11.418;2023-07-28T04:40:56;16.70;99.90
15013;DHT22;7603;49.432;11.418;2023-07-28T04:43:22;16.70;99.90
15013;DHT22;7603;49.432;11.418;2023-07-28T04:45:47;16.70;99.90
15013;DHT22;7603;49.432;11.418;2023-07-28T04:48:13;16.70;99.90
15013;DHT22;7603;49.432;11.418;2023-07-28T04:50:38;16.70;99.90
15013;DHT22;7603;49.432;11.418;2023-07-28T04:53:04;16.70;99.90
15013;DHT22;7603;49.432;11.418;2023-07-28T04:55:30;16.80;99.90
15013;DHT22;7603;49.432;11.418;2023-07-28T04:57:56;16.80;99.90
15013;DHT22;7603;49.432;11.418;2023-07-28T05:00:22;16.80;99.90
15013;DHT22;7603;49.432;11.418;2023-07-28T05:02:49;16.90;99.90
15013;DHT22;7603;49.432;11.418;2023-07-28T05:05:14;16.90;99.90
15013;DHT22;7603;49.432;11.418;2023-07-28T05:07:40;16.90;99.90
15013;DHT22;7603;49.432;11.418;2023-07-28T05:10:07;17.00;99.90
15013;DHT22;7603;49.432;11.418;2023-07-28T05:12:32;17.00;99.90
15013;DHT22;7603;49.432;11.418;2023-07-28T05:14:58;17.10;99.90
15013;DHT22;7603;49.432;11.418;2023-07-28T05:17:24;17.10;99.90
15013;DHT22;7603;49.432;11.418;2023-07-28T05:19:50;17.10;99.90
15013;DHT22;7603;49.432;11.418;2023-07-28T05:22:16;17.20;99.90
15013;DHT22;7603;49.432;11.418;2023-07-28T05:24:42;17.20;99.90
15013;DHT22;7603;49.432;11.418;2023-07-28T05:27:09;17.20;99.90
15013;DHT22;7603;49.432;11.418;2023-07-28T05:29:34;17.20;99.90
15013;DHT22;7603;49.432;11.418;2023-07-28T05:32:00;17.30;99.90
15013;DHT22;7603;49.432;11.418;2023-07-28T05:34:26;17.20;99.90
15013;DHT22;7603;49.432;11.418;2023-07-28T05:36:51;17.40;99.90
15013;DHT22;7603;49.432;11.418;2023-07-28T05:39:17;17.30;99.90
15013;DHT22;7603;49.432;11.418;2023-07-28T05:41:42;17.40;99.90
15013;DHT22;7603;49.432;11.418;2023-07-28T05:44:08;17.40;99.90
15013;DHT22;7603;49.432;11.418;2023-07-28T05:46:33;17.50;99.90
15013;DHT22;7603;49.432;11.418;2023-07-28T05:48:59;17.60;99.90
15013;DHT22;7603;49.432;11.418;2023-07-28T05:51:25;17.60;99.90
15013;DHT22;7603;49.432;11.418;2023-07-28T05:53:51;17.60;99.90
15013;DHT22;7603;49.432;11.418;2023-07-28T05:56:16;17.70;99.90
15013;DHT22;7603;49.432;11.418;2023-07-28T05:58:44;17.70;99.90
15013;DHT22;7603;49.432;11.418;2023-07-28T06:01:09;17.70;99.90
15013;DHT22;7603;49.432;11.418;2023-07-28T06:03:35;17.70;99.90
15013;DHT22;7603;49.432;11.418;2023-07-28T06:06:00;17.70;99.90
15013;DHT22;7603;49.432;11.418;2023-07-28T06:08:26;17.70;99.90
15013;DHT22;7603;49.432;11.418;2023-07-28T06:10:52;17.70;99.90
15013;DHT22;7603;49.432;11.418;2023-07-28T06:13:17;17.70;99.90
15013;DHT22;7603;49.432;11.418;2023-07-28T06:15:43;17.70;99.90
15013;DHT22;7603;49.432;11.418;2023-07-28T06:18:09;17.60;99.90
15013;DHT22;7603;49.432;11.418;2023-07-28T06:20:34;17.60;99.90
15013;DHT22;7603;49.432;11.418;2023-07-28T06:23:00;17.60;99.90
15013;DHT22;7603;49.432;11.418;2023-07-28T06:25:26;17.70;99.90
15013;DHT22;7603;49.432;11.418;2023-07-28T06:27:52;17.80;99.90
15013;DHT22;7603;49.432;11.418;2023-07-28T06:30:18;17.80;99.90
15013;DHT22;7603;49.432;11.418;2023-07-28T06:32:43;17.90;99.90
15013;DHT22;7603;49.432;11.418;2023-07-28T06:35:09;18.10;99.90
15013;DHT22;7603;49.432;11.418;2023-07-28T06:37:36;18.10;99.90
15013;DHT22;7603;49.432;11.418;2023-07-28T06:40:04;18.10;99.90
15013;DHT22;7603;49.432;11.418;2023-07-28T06:42:32;18.30;99.90
15013;DHT22;7603;49.432;11.418;2023-07-28T06:44:58;18.30;99.90
15013;DHT22;7603;49.432;11.418;2023-07-28T06:47:23;18.30;99.90
15013;DHT22;7603;49.432;11.418;2023-07-28T06:49:49;18.50;99.90
15013;DHT22;7603;49.432;11.418;2023-07-28T06:52:14;18.60;99.90
15013;DHT22;7603;49.432;11.418;2023-07-28T06:54:40;18.70;99.90
15013;DHT22;7603;49.432;11.418;2023-07-28T06:57:06;18.90;99.90
15013;DHT22;7603;49.432;11.418;2023-07-28T06:59:32;18.90;99.90
15013;DHT22;7603;49.432;11.418;2023-07-28T07:01:57;19.00;99.90
15013;DHT22;7603;49.432;11.418;2023-07-28T07:04:23;19.10;99.90
15013;DHT22;7603;49.432;11.418;2023-07-28T07:06:48;19.10;99.90
15013;DHT22;7603;49.432;11.418;2023-07-28T07:09:14;19.00;99.90
15013;DHT22;7603;49.432;11.418;2023-07-28T07:11:40;19.00;99.90
15013;DHT22;7603;49.432;11.418;2023-07-28T07:14:06;18.90;99.90
15013;DHT22;7603;49.432;11.418;2023-07-28T07:16:32;18.80;99.90
15013;DHT22;7603;49.432;11.418;2023-07-28T07:18:58;18.80;99.90
15013;DHT22;7603;49.432;11.418;2023-07-28T07:21:24;18.80;99.90
15013;DHT22;7603;49.432;11.418;2023-07-28T07:23:49;18.90;99.90
15013;DHT22;7603;49.432;11.418;2023-07-28T07:26:15;19.00;99.90
15013;DHT22;7603;49.432;11.418;2023-07-28T07:28:41;19.10;99.90
15013;DHT22;7603;49.432;11.418;2023-07-28T07:31:13;19.10;99.90
15013;DHT22;7603;49.432;11.418;2023-07-28T07:33:40;19.00;99.90
15013;DHT22;7603;49.432;11.418;2023-07-28T07:36:05;18.70;99.90
15013;DHT22;7603;49.432;11.418;2023-07-28T07:38:31;18.40;99.90
15013;DHT22;7603;49.432;11.418;2023-07-28T07:40:56;18.20;99.90
15013;DHT22;7603;49.432;11.418;2023-07-28T07:43:22;18.00;99.90
15013;DHT22;7603;49.432;11.418;2023-07-28T07:45:48;17.90;99.90
15013;DHT22;7603;49.432;11.418;2023-07-28T07:48:15;17.70;99.90
15013;DHT22;7603;49.432;11.418;2023-07-28T07:50:41;17.60;99.90
15013;DHT22;7603;49.432;11.418;2023-07-28T07:53:06;17.60;99.90
15013;DHT22;7603;49.432;11.418;2023-07-28T07:55:32;17.60;99.90
15013;DHT22;7603;49.432;11.418;2023-07-28T07:57:58;17.60;99.90
15013;DHT22;7603;49.432;11.418;2023-07-28T08:00:23;17.70;99.90
15013;DHT22;7603;49.432;11.418;2023-07-28T08:02:49;17.80;99.90
15013;DHT22;7603;49.432;11.418;2023-07-28T08:05:15;17.80;99.90
15013;DHT22;7603;49.432;11.418;2023-07-28T08:07:41;17.80;99.90
15013;DHT22;7603;49.432;11.418;2023-07-28T08:10:07;17.80;99.90
15013;DHT22;7603;49.432;11.418;2023-07-28T08:12:33;17.80;99.90
15013;DHT22;7603;49.432;11.418;2023-07-28T08:14:59;17.70;99.90
15013;DHT22;7603;49.432;11.418;2023-07-28T08:17:25;17.60;99.90
15013;DHT22;7603;49.432;11.418;2023-07-28T08:19:50;17.70;99.90
15013;DHT22;7603;49.432;11.418;2023-07-28T08:22:16;17.70;99.90
15013;DHT22;7603;49.432;11.418;2023-07-28T08:24:42;17.70;99.90
15013;DHT22;7603;49.432;11.418;2023-07-28T08:27:07;17.70;99.90
15013;DHT22;7603;49.432;11.418;2023-07-28T08:29:33;17.80;99.90
15013;DHT22;7603;49.432;11.418;2023-07-28T08:31:59;18.10;99.90
15013;DHT22;7603;49.432;11.418;2023-07-28T08:34:24;18.50;99.90
15013;DHT22;7603;49.432;11.418;2023-07-28T08:36:50;19.10;99.90
15013;DHT22;7603;49.432;11.418;2023-07-28T08:39:17;19.50;99.90
15013;DHT22;7603;49.432;11.418;2023-07-28T08:41:43;19.80;99.90
15013;DHT22;7603;49.432;11.418;2023-07-28T08:44:09;20.10;99.90
15013;DHT22;7603;49.432;11.418;2023-07-28T08:46:34;20.30;99.90
15013;DHT22;7603;49.432;11.418;2023-07-28T08:49:01;20.30;99.90
15013;DHT22;7603;49.432;11.418;2023-07-28T08:51:27;20.30;99.90
15013;DHT22;7603;49.432;11.418;2023-07-28T08:53:52;20.30;99.90
15013;DHT22;7603;49.432;11.418;2023-07-28T08:56:18;20.30;99.90
15013;DHT22;7603;49.432;11.418;2023-07-28T08:58:44;20.40;99.90
15013;DHT22;7603;49.432;11.418;2023-07-28T09:01:10;20.60;99.90
15013;DHT22;7603;49.432;11.418;2023-07-28T09:03:39;20.80;99.90
15013;DHT22;7603;49.432;11.418;2023-07-28T09:06:07;21.00;99.90
15013;DHT22;7603;49.432;11.418;2023-07-28T09:08:35;21.00;99.90
15013;DHT22;7603;49.432;11.418;2023-07-28T09:11:04;21.30;99.90
15013;DHT22;7603;49.432;11.418;2023-07-28T09:13:39;21.60;99.90
15013;DHT22;7603;49.432;11.418;2023-07-28T09:16:19;21.70;99.90
15013;DHT22;7603;49.432;11.418;2023-07-28T09:18:45;21.80;99.90
15013;DHT22;7603;49.432;11.418;2023-07-28T09:21:18;21.80;99.90
15013;DHT22;7603;49.432;11.418;2023-07-28T09:23:44;21.80;99.90
15013;DHT22;7603;49.432;11.418;2023-07-28T09:26:11;21.70;99.90
15013;DHT22;7603;49.432;11.418;2023-07-28T09:28:37;21.50;99.90
15013;DHT22;7603;49.432;11.418;2023-07-28T09:31:05;21.30;99.90
15013;DHT22;7603;49.432;11.418;2023-07-28T09:33:35;21.20;99.90
15013;DHT22;7603;49.432;11.418;2023-07-28T09:36:12;21.30;99.90
15013;DHT22;7603;49.432;11.418;2023-07-28T09:38:39;21.40;99.90
15013;DHT22;7603;49.432;11.418;2023-07-28T09:41:09;21.40;99.90
15013;DHT22;7603;49.432;11.418;2023-07-28T09:43:37;21.50;99.90
15013;DHT22;7603;49.432;11.418;2023-07-28T09:46:07;21.70;99.90
15013;DHT22;7603;49.432;11.418;2023-07-28T09:48:34;21.70;99.90
15013;DHT22;7603;49.432;11.418;2023-07-28T09:51:10;21.70;99.90
15013;DHT22;7603;49.432;11.418;2023-07-28T09:53:42;21.70;99.90
15013;DHT22;7603;49.432;11.418;2023-07-28T09:56:12;21.80;99.90
15013;DHT22;7603;49.432;11.418;2023-07-28T09:58:41;21.70;99.90
15013;DHT22;7603;49.432;11.418;2023-07-28T10:01:10;21.70;99.90
15013;DHT22;7603;49.432;11.418;2023-07-28T10:03:37;21.80;99.90
15013;DHT22;7603;49.432;11.418;2023-07-28T10:06:02;22.00;99.90
15013;DHT22;7603;49.432;11.418;2023-07-28T10:08:28;22.20;99.90
15013;DHT22;7603;49.432;11.418;2023-07-28T10:10:54;22.40;99.90
15013;DHT22;7603;49.432;11.418;2023-07-28T10:13:21;22.60;99.90
15013;DHT22;7603;49.432;11.418;2023-07-28T10:15:47;22.80;99.90
15013;DHT22;7603;49.432;11.418;2023-07-28T10:18:14;23.00;99.90
15013;DHT22;7603;49.432;11.418;2023-07-28T10:20:42;23.00;99.90
15013;DHT22;7603;49.432;11.418;2023-07-28T10:23:21;23.00;99.90
15013;DHT22;7603;49.432;11.418;2023-07-28T10:25:58;22.90;99.90
15013;DHT22;7603;49.432;11.418;2023-07-28T10:28:39;22.90;99.90
15013;DHT22;7603;49.432;11.418;2023-07-28T10:31:08;23.00;99.90
15013;DHT22;7603;49.432;11.418;2023-07-28T10:33:38;23.30;99.90
15013;DHT22;7603;49.432;11.418;2023-07-28T10:41:29;24.10;99.90
15013;DHT22;7603;49.432;11.418;2023-07-28T10:43:56;24.40;99.90
15013;DHT22;7603;49.432;11.418;2023-07-28T10:46:22;24.90;99.90
15013;DHT22;7603;49.432;11.418;2023-07-28T10:48:49;25.30;99.90
15013;DHT22;7603;49.432;11.418;2023-07-28T10:51:25;25.50;99.90
15013;DHT22;7603;49.432;11.418;2023-07-28T10:53:57;25.60;99.30
15013;DHT22;7603;49.432;11.418;2023-07-28T10:56:23;25.60;98.60
15013;DHT22;7603;49.432;11.418;2023-07-28T10:58:59;25.60;98.80
15013;DHT22;7603;49.432;11.418;2023-07-28T11:01:31;25.30;97.20
15013;DHT22;7603;49.432;11.418;2023-07-28T11:04:20;24.80;98.10
15013;DHT22;7603;49.432;11.418;2023-07-28T11:06:48;24.30;99.40
15013;DHT22;7603;49.432;11.418;2023-07-28T11:09:18;23.80;99.90
15013;DHT22;7603;49.432;11.418;2023-07-28T11:11:44;23.40;99.90
15013;DHT22;7603;49.432;11.418;2023-07-28T11:14:11;23.20;99.90
15013;DHT22;7603;49.432;11.418;2023-07-28T11:16:38;23.00;99.90
15013;DHT22;7603;49.432;11.418;2023-07-28T11:19:09;22.90;99.90
15013;DHT22;7603;49.432;11.418;2023-07-28T11:21:49;22.80;99.90
15013;DHT22;7603;49.432;11.418;2023-07-28T11:24:19;22.90;99.90
15013;DHT22;7603;49.432;11.418;2023-07-28T11:26:45;23.30;99.90
15013;DHT22;7603;49.432;11.418;2023-07-28T11:29:13;24.00;99.90
15013;DHT22;7603;49.432;11.418;2023-07-28T11:31:41;24.60;99.90
15013;DHT22;7603;49.432;11.418;2023-07-28T11:34:16;25.30;99.90
15013;DHT22;7603;49.432;11.418;2023-07-28T11:36:42;25.80;99.90
15013;DHT22;7603;49.432;11.418;2023-07-28T11:39:08;26.50;99.90
15013;DHT22;7603;49.432;11.418;2023-07-28T11:41:36;27.00;97.30
15013;DHT22;7603;49.432;11.418;2023-07-28T11:44:02;27.70;95.70
15013;DHT22;7603;49.432;11.418;2023-07-28T11:46:38;28.30;92.90
15013;DHT22;7603;49.432;11.418;2023-07-28T11:49:14;28.50;89.80
15013;DHT22;7603;49.432;11.418;2023-07-28T11:51:51;28.40;89.00
15013;DHT22;7603;49.432;11.418;2023-07-28T11:54:18;28.20;88.90
15013;DHT22;7603;49.432;11.418;2023-07-28T11:56:48;28.10;88.10
15013;DHT22;7603;49.432;11.418;2023-07-28T11:59:18;28.10;86.90
15013;DHT22;7603;49.432;11.418;2023-07-28T12:01:57;27.80;86.90
15013;DHT22;7603;49.432;11.418;2023-07-28T12:04:25;27.40;88.50
15013;DHT22;7603;49.432;11.418;2023-07-28T12:09:26;26.50;89.70
15013;DHT22;7603;49.432;11.418;2023-07-28T12:11:51;26.40;90.70
15013;DHT22;7603;49.432;11.418;2023-07-28T12:14:33;26.40;91.10
15013;DHT22;7603;49.432;11.418;2023-07-28T12:16:59;26.10;90.50
15013;DHT22;7603;49.432;11.418;2023-07-28T12:19:25;25.80;92.30
15013;DHT22;7603;49.432;11.418;2023-07-28T12:21:50;25.40;92.50
15013;DHT22;7603;49.432;11.418;2023-07-28T12:24:16;25.30;93.50
15013;DHT22;7603;49.432;11.418;2023-07-28T12:26:41;25.40;94.50
15013;DHT22;7603;49.432;11.418;2023-07-28T12:29:07;26.10;93.80
15013;DHT22;7603;49.432;11.418;2023-07-28T12:31:33;27.40;92.90
15013;DHT22;7603;49.432;11.418;2023-07-28T12:33:58;29.90;88.00
15013;DHT22;7603;49.432;11.418;2023-07-28T12:36:24;33.00;78.10
15013;DHT22;7603;49.432;11.418;2023-07-28T12:38:49;34.80;64.70
15013;DHT22;7603;49.432;11.418;2023-07-28T12:41:15;35.40;60.40
15013;DHT22;7603;49.432;11.418;2023-07-28T12:43:41;35.20;57.00
15013;DHT22;7603;49.432;11.418;2023-07-28T12:46:06;33.70;57.00
15013;DHT22;7603;49.432;11.418;2023-07-28T12:48:32;32.20;58.70
15013;DHT22;7603;49.432;11.418;2023-07-28T12:50:57;31.00;61.40
15013;DHT22;7603;49.432;11.418;2023-07-28T12:53:23;30.20;64.00
15013;DHT22;7603;49.432;11.418;2023-07-28T12:55:49;29.80;66.00
15013;DHT22;7603;49.432;11.418;2023-07-28T12:58:15;30.10;65.10
15013;DHT22;7603;49.432;11.418;2023-07-28T13:00:41;31.50;64.10
15013;DHT22;7603;49.432;11.418;2023-07-28T13:03:06;32.90;60.30
15013;DHT22;7603;49.432;11.418;2023-07-28T13:05:32;33.60;56.80
15013;DHT22;7603;49.432;11.418;2023-07-28T13:07:58;33.70;57.10
15013;DHT22;7603;49.432;11.418;2023-07-28T13:10:23;33.60;55.60
15013;DHT22;7603;49.432;11.418;2023-07-28T13:12:49;33.20;56.60
15013;DHT22;7603;49.432;11.418;2023-07-28T13:15:14;32.30;57.50
15013;DHT22;7603;49.432;11.418;2023-07-28T13:17:40;31.00;59.10
15013;DHT22;7603;49.432;11.418;2023-07-28T13:20:06;30.20;62.20
15013;DHT22;7603;49.432;11.418;2023-07-28T13:22:32;29.70;64.30
15013;DHT22;7603;49.432;11.418;2023-07-28T13:24:58;29.20;68.00
15013;DHT22;7603;49.432;11.418;2023-07-28T13:27:23;28.90;68.20
15013;DHT22;7603;49.432;11.418;2023-07-28T13:29:49;28.90;67.90
15013;DHT22;7603;49.432;11.418;2023-07-28T13:32:17;29.10;67.10
15013;DHT22;7603;49.432;11.418;2023-07-28T13:34:43;30.20;66.30
15013;DHT22;7603;49.432;11.418;2023-07-28T13:37:08;31.80;62.30
15013;DHT22;7603;49.432;11.418;2023-07-28T13:39:34;33.20;58.10
15013;DHT22;7603;49.432;11.418;2023-07-28T13:42:00;34.20;56.40
15013;DHT22;7603;49.432;11.418;2023-07-28T13:44:25;34.10;55.20
15013;DHT22;7603;49.432;11.418;2023-07-28T13:46:51;33.30;54.90
15013;DHT22;7603;49.432;11.418;2023-07-28T13:49:16;32.50;56.60
15013;DHT22;7603;49.432;11.418;2023-07-28T13:51:42;31.90;58.00
15013;DHT22;7603;49.432;11.418;2023-07-28T13:54:09;31.10;59.10
15013;DHT22;7603;49.432;11.418;2023-07-28T13:56:35;30.70;61.60
15013;DHT22;7603;49.432;11.418;2023-07-28T13:59:00;30.70;61.90
15013;DHT22;7603;49.432;11.418;2023-07-28T14:01:26;31.00;59.80
15013;DHT22;7603;49.432;11.418;2023-07-28T14:03:52;31.50;59.30
15013;DHT22;7603;49.432;11.418;2023-07-28T14:06:17;32.60;56.90
15013;DHT22;7603;49.432;11.418;2023-07-28T14:08:43;33.60;53.90
15013;DHT22;7603;49.432;11.418;2023-07-28T14:11:10;33.60;53.10
15013;DHT22;7603;49.432;11.418;2023-07-28T14:13:36;33.80;52.90
15013;DHT22;7603;49.432;11.418;2023-07-28T14:16:01;33.50;52.90
15013;DHT22;7603;49.432;11.418;2023-07-28T14:18:27;33.00;54.00
15013;DHT22;7603;49.432;11.418;2023-07-28T14:20:52;33.80;53.30
15013;DHT22;7603;49.432;11.418;2023-07-28T14:23:26;35.20;51.20
15013;DHT22;7603;49.432;11.418;2023-07-28T14:25:52;35.80;48.70
15013;DHT22;7603;49.432;11.418;2023-07-28T14:28:18;36.10;48.30
15013;DHT22;7603;49.432;11.418;2023-07-28T14:30:44;36.10;47.60
15013;DHT22;7603;49.432;11.418;2023-07-28T14:33:16;35.80;48.20
15013;DHT22;7603;49.432;11.418;2023-07-28T14:35:47;35.20;49.00
15013;DHT22;7603;49.432;11.418;2023-07-28T14:38:12;34.60;49.70
15013;DHT22;7603;49.432;11.418;2023-07-28T14:40:38;34.10;50.30
15013;DHT22;7603;49.432;11.418;2023-07-28T14:43:08;34.20;50.90
15013;DHT22;7603;49.432;11.418;2023-07-28T14:45:34;34.10;50.70
15013;DHT22;7603;49.432;11.418;2023-07-28T14:48:01;34.00;51.10
15013;DHT22;7603;49.432;11.418;2023-07-28T14:50:26;33.90;51.40
15013;DHT22;7603;49.432;11.418;2023-07-28T14:52:53;33.80;52.00
15013;DHT22;7603;49.432;11.418;2023-07-28T14:55:18;33.80;52.00
15013;DHT22;7603;49.432;11.418;2023-07-28T14:57:44;33.80;52.70
15013;DHT22;7603;49.432;11.418;2023-07-28T15:00:10;33.80;52.60
15013;DHT22;7603;49.432;11.418;2023-07-28T15:02:36;33.50;52.30
15013;DHT22;7603;49.432;11.418;2023-07-28T15:05:02;33.10;52.90
15013;DHT22;7603;49.432;11.418;2023-07-28T15:07:28;32.80;53.40
15013;DHT22;7603;49.432;11.418;2023-07-28T15:09:53;32.50;53.50
15013;DHT22;7603;49.432;11.418;2023-07-28T15:12:19;31.90;53.90
15013;DHT22;7603;49.432;11.418;2023-07-28T15:14:45;31.20;54.90
15013;DHT22;7603;49.432;11.418;2023-07-28T15:17:10;30.60;56.60
15013;DHT22;7603;49.432;11.418;2023-07-28T15:19:36;30.10;57.70
15013;DHT22;7603;49.432;11.418;2023-07-28T15:22:02;29.80;58.40
15013;DHT22;7603;49.432;11.418;2023-07-28T15:24:28;29.40;59.00
15013;DHT22;7603;49.432;11.418;2023-07-28T15:26:54;29.00;60.10
15013;DHT22;7603;49.432;11.418;2023-07-28T15:29:19;28.80;60.90
15013;DHT22;7603;49.432;11.418;2023-07-28T15:31:45;28.60;61.90
15013;DHT22;7603;49.432;11.418;2023-07-28T15:34:11;28.20;62.40
15013;DHT22;7603;49.432;11.418;2023-07-28T15:36:36;27.80;63.40